Tropical Cyclones
[Index]
Main Index Home Page Stock Weather Photos Extreme Storms Discussion Storm News and Storm Chasing Reports Tropical Cyclones / Hurricanes / Typhoons Weather Data and Links Wild Fires / Bushfires Weather Observation Techniques Weather Picture Catalogue Tornado Pictures and Reports Stock Video Footage and DVDs for sale
Season 2012-2013 Tropical Cyclone IMELDA Track Map
Season 2012-2013 Summaries: [BoM-AU] [JTWC-AU] [JTWC-SIO] [JTWC-SPAC] [JTWC-SH]
<<- Previous TC | JTWC 2012-2013 Season | Next TC ->>

click for intensity scale information  Lat/long Grid: Show Hide

 Date Labels: Show Hide

Joint Typhoon Warning Centre Cyclone Data

Name: IMELDA

03 Apr 2013 06:00 UTC to 19 Apr 2013 06:00 UTC

    date/time    lat    long     hPa   cat  kts
2013-04-03 06    8.5    75.3    1007         20          
2013-04-03 12    8.7    75.9    1007         20          
2013-04-03 18    9.0    76.5    1004         25          
2013-04-04 00    9.4    77.2    1004         25          
2013-04-04 06   10.0    77.8    1004         25          
2013-04-04 12   10.6    77.9    1004         25          
2013-04-04 18   10.6    77.3    1004         25          
2013-04-05 00   10.8    76.6    1004         25          
2013-04-05 06   11.2    75.8    1004         25          
2013-04-05 12   11.3    74.8    1004         25          
2013-04-05 18   10.6    74.3    1000         30          
2013-04-06 00   10.8    73.5    1000         30          
2013-04-06 06   10.8    72.8    1000         30          
2013-04-06 12   10.7    72.1    1000         30          
2013-04-06 18   10.6    71.5    1000         30          
2013-04-07 00   10.6    70.9    1000         30          
2013-04-07 06   10.8    70.2    1000         30          
2013-04-07 12   11.0    69.2    1000         30          
2013-04-07 18   11.5    67.8    1000         30          
2013-04-08 00   11.4    66.5     996         35          
2013-04-08 06   10.9    65.3     996         35          
2013-04-08 12   11.0    64.1     996         35          
2013-04-08 18   11.2    63.3     993    1    40          
2013-04-09 00   11.4    62.3     989    1    45          
2013-04-09 06   11.5    61.2     985    1    50          
2013-04-09 12   11.5    60.3     982    2    55          
2013-04-09 12   11.5    60.3     982    2    55          
2013-04-09 18   11.7    59.5     978    2    60          
2013-04-09 18   11.7    59.5     978    2    60          
2013-04-10 00   11.9    58.7     970    2    70          
2013-04-10 00   11.9    58.7     970    2    70          
2013-04-10 06   12.1    58.4     970    2    70          
2013-04-10 06   12.1    58.4     970    2    70          
2013-04-10 06   12.1    58.4     970    2    70          
2013-04-10 12   12.2    58.0     967    3    75          
2013-04-10 12   12.2    58.0     967    3    75          
2013-04-10 12   12.2    58.0     967    3    75          
2013-04-10 14   12.2    57.9     967    3    75          
2013-04-10 14   12.2    57.9     967    3    75          
2013-04-10 14   12.2    57.9     967    3    75          
2013-04-10 16   12.1    58.0     963    3    80          
2013-04-10 16   12.1    58.0     963    3    80          
2013-04-10 16   12.1    58.0     963    3    80          
2013-04-10 18   12.2    58.1     959    3    85          
2013-04-10 18   12.2    58.1     959    3    85          
2013-04-10 18   12.2    58.1     959    3    85          
2013-04-11 00   12.6    58.1     963    3    80          
2013-04-11 00   12.6    58.1     963    3    80          
2013-04-11 00   12.6    58.1     963    3    80          
2013-04-11 06   12.9    58.1     967    3    75          
2013-04-11 06   12.9    58.1     967    3    75          
2013-04-11 06   12.9    58.1     967    3    75          
2013-04-11 12   13.1    58.2     974    2    65          
2013-04-11 12   13.1    58.2     974    2    65          
2013-04-11 18   13.2    58.5     982    2    55          
2013-04-11 18   13.2    58.5     982    2    55          
2013-04-12 00   13.5    58.6     985    1    50          
2013-04-12 06   14.1    58.9     989    1    45          
2013-04-12 12   14.7    59.2     993    1    40          
2013-04-12 18   15.3    59.5     996         35          
2013-04-13 00   15.8    59.5     996         35          
2013-04-13 06   16.3    59.3     996         35          
2013-04-13 12   16.6    59.0     985    1    50          
2013-04-13 18   16.8    59.0     982    2    55          
2013-04-14 00   17.0    59.2     978    2    60          
2013-04-14 00   17.0    59.2     978    2    60          
2013-04-14 06   17.3    59.4     978    2    60          
2013-04-14 06   17.3    59.4     978    2    60          
2013-04-14 12   17.7    60.0     963    3    80          
2013-04-14 12   17.7    60.0     963    3    80          
2013-04-14 12   17.7    60.0     963    3    80          
2013-04-14 18   18.3    60.6     963    3    80          
2013-04-14 18   18.3    60.6     963    3    80          
2013-04-14 18   18.3    60.6     963    3    80          
2013-04-15 00   18.8    61.3     963    3    80          
2013-04-15 00   18.8    61.3     963    3    80          
2013-04-15 00   18.8    61.3     963    3    80          
2013-04-15 06   19.5    61.8     967    3    75          
2013-04-15 06   19.5    61.8     967    3    75          
2013-04-15 12   19.9    62.3     970    2    70          
2013-04-15 12   19.9    62.3     970    2    70          
2013-04-15 18   20.3    62.4     978    2    60          
2013-04-15 18   20.3    62.4     978    2    60          
2013-04-16 00   20.6    62.6     989    1    45          
2013-04-16 06   21.0    62.9     993    1    40          
2013-04-16 12   21.5    63.0    1000         30          
2013-04-16 18   21.3    63.3    1000         30          
2013-04-17 00   21.1    63.2    1000         30          
2013-04-17 06   21.0    62.8    1000         30          
2013-04-17 12   21.2    62.1    1004         25          
2013-04-17 18   21.5    60.8    1004         25          
2013-04-18 00   21.7    59.4    1004         25          
2013-04-18 06   21.6    57.2    1007         20          
2013-04-18 12   22.4    55.2    1007         20          
2013-04-18 18   22.9    53.3    1007         20          
2013-04-19 00   23.5    51.8    1007         20          
2013-04-19 06   24.7    50.4    1007         20          
Winds are 1-min average.

Tropical cyclone tracks developed by Michael Bath using data from the Joint Typhoon Warning Centre Best Tracks and Google Maps.


[Australian Severe Weather index] [Copyright Notice] [Email Contacts] [Search This Site] [Privacy Policy]
Document: tropical_cyclone_imelda.htm Updated: 28 June 2017